sensor_id;sensor_type;location;lat;lon;timestamp;temperature;humidity
25554;DHT22;13446;50.926;5.332;2022-07-23T00:00:02;19.80;99.90
25554;DHT22;13446;50.926;5.332;2022-07-23T00:02:28;19.80;99.90
25554;DHT22;13446;50.926;5.332;2022-07-23T00:04:54;19.80;99.90
25554;DHT22;13446;50.926;5.332;2022-07-23T00:07:22;19.80;99.90
25554;DHT22;13446;50.926;5.332;2022-07-23T00:09:48;19.70;99.90
25554;DHT22;13446;50.926;5.332;2022-07-23T00:12:16;19.60;99.90
25554;DHT22;13446;50.926;5.332;2022-07-23T00:14:45;19.60;99.90
25554;DHT22;13446;50.926;5.332;2022-07-23T00:17:15;19.40;99.90
25554;DHT22;13446;50.926;5.332;2022-07-23T00:19:40;19.40;99.90
25554;DHT22;13446;50.926;5.332;2022-07-23T00:22:06;19.50;99.90
25554;DHT22;13446;50.926;5.332;2022-07-23T00:24:36;19.60;99.90
25554;DHT22;13446;50.926;5.332;2022-07-23T00:27:11;19.50;99.90
25554;DHT22;13446;50.926;5.332;2022-07-23T00:29:37;19.50;99.90
25554;DHT22;13446;50.926;5.332;2022-07-23T00:32:04;19.40;99.90
25554;DHT22;13446;50.926;5.332;2022-07-23T00:34:33;19.40;99.90
25554;DHT22;13446;50.926;5.332;2022-07-23T00:36:58;19.40;99.90
25554;DHT22;13446;50.926;5.332;2022-07-23T00:39:27;19.20;99.90
25554;DHT22;13446;50.926;5.332;2022-07-23T00:41:52;19.30;99.90
25554;DHT22;13446;50.926;5.332;2022-07-23T00:44:21;19.30;99.90
25554;DHT22;13446;50.926;5.332;2022-07-23T00:46:58;19.00;99.90
25554;DHT22;13446;50.926;5.332;2022-07-23T00:49:26;18.90;99.90
25554;DHT22;13446;50.926;5.332;2022-07-23T00:51:54;18.90;99.90
25554;DHT22;13446;50.926;5.332;2022-07-23T00:54:22;18.90;99.90
25554;DHT22;13446;50.926;5.332;2022-07-23T00:56:49;18.90;99.90
25554;DHT22;13446;50.926;5.332;2022-07-23T00:59:18;18.90;99.90
25554;DHT22;13446;50.926;5.332;2022-07-23T01:01:50;19.00;99.90
25554;DHT22;13446;50.926;5.332;2022-07-23T01:04:19;19.00;99.90
25554;DHT22;13446;50.926;5.332;2022-07-23T01:06:48;19.00;99.90
25554;DHT22;13446;50.926;5.332;2022-07-23T01:09:22;19.10;99.90
25554;DHT22;13446;50.926;5.332;2022-07-23T01:11:48;19.00;99.90
25554;DHT22;13446;50.926;5.332;2022-07-23T01:14:16;19.00;99.90
25554;DHT22;13446;50.926;5.332;2022-07-23T01:16:47;19.00;99.90
25554;DHT22;13446;50.926;5.332;2022-07-23T01:19:16;18.90;99.90
25554;DHT22;13446;50.926;5.332;2022-07-23T01:21:52;19.00;99.90
25554;DHT22;13446;50.926;5.332;2022-07-23T01:24:18;18.80;99.90
25554;DHT22;13446;50.926;5.332;2022-07-23T01:26:48;18.80;99.90
25554;DHT22;13446;50.926;5.332;2022-07-23T01:29:15;18.70;99.90
25554;DHT22;13446;50.926;5.332;2022-07-23T01:31:43;18.60;99.90
25554;DHT22;13446;50.926;5.332;2022-07-23T01:34:12;18.60;99.90
25554;DHT22;13446;50.926;5.332;2022-07-23T01:36:41;18.60;99.90
25554;DHT22;13446;50.926;5.332;2022-07-23T01:39:15;18.50;99.90
25554;DHT22;13446;50.926;5.332;2022-07-23T01:41:41;18.50;99.90
25554;DHT22;13446;50.926;5.332;2022-07-23T01:44:07;18.40;99.90
25554;DHT22;13446;50.926;5.332;2022-07-23T01:46:39;18.40;99.90
25554;DHT22;13446;50.926;5.332;2022-07-23T01:49:05;18.50;99.90
25554;DHT22;13446;50.926;5.332;2022-07-23T01:51:30;18.30;99.90
25554;DHT22;13446;50.926;5.332;2022-07-23T01:53:56;18.40;99.90
25554;DHT22;13446;50.926;5.332;2022-07-23T01:56:22;18.30;99.90
25554;DHT22;13446;50.926;5.332;2022-07-23T01:58:49;18.10;99.90
25554;DHT22;13446;50.926;5.332;2022-07-23T02:01:15;18.20;99.90
25554;DHT22;13446;50.926;5.332;2022-07-23T02:03:46;18.40;99.90
25554;DHT22;13446;50.926;5.332;2022-07-23T02:06:12;18.40;99.90
25554;DHT22;13446;50.926;5.332;2022-07-23T02:08:37;18.50;99.90
25554;DHT22;13446;50.926;5.332;2022-07-23T02:11:03;18.50;99.90
25554;DHT22;13446;50.926;5.332;2022-07-23T02:13:29;18.40;99.90
25554;DHT22;13446;50.926;5.332;2022-07-23T02:15:54;18.40;99.90
25554;DHT22;13446;50.926;5.332;2022-07-23T02:18:20;18.30;99.90
25554;DHT22;13446;50.926;5.332;2022-07-23T02:20:46;18.30;99.90
25554;DHT22;13446;50.926;5.332;2022-07-23T02:23:19;18.30;99.90
25554;DHT22;13446;50.926;5.332;2022-07-23T02:25:44;18.30;99.90
25554;DHT22;13446;50.926;5.332;2022-07-23T02:28:10;18.10;99.90
25554;DHT22;13446;50.926;5.332;2022-07-23T02:30:38;18.10;99.90
25554;DHT22;13446;50.926;5.332;2022-07-23T02:33:05;18.30;99.90
25554;DHT22;13446;50.926;5.332;2022-07-23T02:35:34;18.20;99.90
25554;DHT22;13446;50.926;5.332;2022-07-23T02:38:08;18.10;99.90
25554;DHT22;13446;50.926;5.332;2022-07-23T02:40:34;18.00;99.90
25554;DHT22;13446;50.926;5.332;2022-07-23T02:43:00;18.00;99.90
25554;DHT22;13446;50.926;5.332;2022-07-23T02:45:25;18.00;99.90
25554;DHT22;13446;50.926;5.332;2022-07-23T02:47:57;18.00;99.90
25554;DHT22;13446;50.926;5.332;2022-07-23T02:50:22;18.00;99.90
25554;DHT22;13446;50.926;5.332;2022-07-23T02:52:48;17.80;99.90
25554;DHT22;13446;50.926;5.332;2022-07-23T02:55:17;17.90;99.90
25554;DHT22;13446;50.926;5.332;2022-07-23T02:57:43;18.00;99.90
25554;DHT22;13446;50.926;5.332;2022-07-23T03:00:12;17.90;99.90
25554;DHT22;13446;50.926;5.332;2022-07-23T03:02:38;17.90;99.90
25554;DHT22;13446;50.926;5.332;2022-07-23T03:05:04;17.80;99.90
25554;DHT22;13446;50.926;5.332;2022-07-23T03:07:30;17.80;99.90
25554;DHT22;13446;50.926;5.332;2022-07-23T03:09:59;17.70;99.90
25554;DHT22;13446;50.926;5.332;2022-07-23T03:12:49;17.60;99.90
25554;DHT22;13446;50.926;5.332;2022-07-23T03:15:14;17.70;99.90
25554;DHT22;13446;50.926;5.332;2022-07-23T03:18:10;17.80;99.90
25554;DHT22;13446;50.926;5.332;2022-07-23T03:20:36;17.70;99.90
25554;DHT22;13446;50.926;5.332;2022-07-23T03:23:02;17.80;99.90
25554;DHT22;13446;50.926;5.332;2022-07-23T03:25:28;17.80;99.90
25554;DHT22;13446;50.926;5.332;2022-07-23T03:28:03;17.80;99.90
25554;DHT22;13446;50.926;5.332;2022-07-23T03:30:32;17.80;99.90
25554;DHT22;13446;50.926;5.332;2022-07-23T03:33:00;17.80;99.90
25554;DHT22;13446;50.926;5.332;2022-07-23T03:35:29;17.80;99.90
25554;DHT22;13446;50.926;5.332;2022-07-23T03:37:57;17.90;99.90
25554;DHT22;13446;50.926;5.332;2022-07-23T03:40:23;17.80;99.90
25554;DHT22;13446;50.926;5.332;2022-07-23T03:42:49;17.80;99.90
25554;DHT22;13446;50.926;5.332;2022-07-23T03:45:15;17.80;99.90
25554;DHT22;13446;50.926;5.332;2022-07-23T03:47:40;17.80;99.90
25554;DHT22;13446;50.926;5.332;2022-07-23T03:50:06;17.90;99.90
25554;DHT22;13446;50.926;5.332;2022-07-23T03:52:32;17.70;99.90
25554;DHT22;13446;50.926;5.332;2022-07-23T03:54:58;17.80;99.90
25554;DHT22;13446;50.926;5.332;2022-07-23T03:57:24;17.80;99.90
25554;DHT22;13446;50.926;5.332;2022-07-23T03:59:49;17.70;99.90
25554;DHT22;13446;50.926;5.332;2022-07-23T04:02:18;17.70;99.90
25554;DHT22;13446;50.926;5.332;2022-07-23T04:04:44;17.60;99.90
25554;DHT22;13446;50.926;5.332;2022-07-23T04:07:13;17.60;99.90
25554;DHT22;13446;50.926;5.332;2022-07-23T04:09:42;17.40;99.90
25554;DHT22;13446;50.926;5.332;2022-07-23T04:12:08;17.20;99.90
25554;DHT22;13446;50.926;5.332;2022-07-23T04:14:33;17.20;99.90
25554;DHT22;13446;50.926;5.332;2022-07-23T04:17:02;17.10;99.90
25554;DHT22;13446;50.926;5.332;2022-07-23T04:19:37;16.90;99.90
25554;DHT22;13446;50.926;5.332;2022-07-23T04:22:09;16.80;99.90
25554;DHT22;13446;50.926;5.332;2022-07-23T04:27:12;16.80;99.90
25554;DHT22;13446;50.926;5.332;2022-07-23T04:29:40;17.00;99.90
25554;DHT22;13446;50.926;5.332;2022-07-23T04:32:07;17.30;99.90
25554;DHT22;13446;50.926;5.332;2022-07-23T04:34:39;17.50;99.90
25554;DHT22;13446;50.926;5.332;2022-07-23T04:37:08;17.50;99.90
25554;DHT22;13446;50.926;5.332;2022-07-23T04:39:33;17.30;99.90
25554;DHT22;13446;50.926;5.332;2022-07-23T04:41:59;17.50;99.90
25554;DHT22;13446;50.926;5.332;2022-07-23T04:44:36;17.50;99.90
25554;DHT22;13446;50.926;5.332;2022-07-23T04:47:01;17.70;99.90
25554;DHT22;13446;50.926;5.332;2022-07-23T04:49:31;17.80;99.90
25554;DHT22;13446;50.926;5.332;2022-07-23T04:52:07;17.80;99.90
25554;DHT22;13446;50.926;5.332;2022-07-23T04:54:33;17.90;99.90
25554;DHT22;13446;50.926;5.332;2022-07-23T04:56:58;17.90;99.90
25554;DHT22;13446;50.926;5.332;2022-07-23T04:59:28;18.10;99.90
25554;DHT22;13446;50.926;5.332;2022-07-23T05:01:57;18.20;99.90
25554;DHT22;13446;50.926;5.332;2022-07-23T05:04:23;18.20;99.90
25554;DHT22;13446;50.926;5.332;2022-07-23T05:06:51;18.40;99.90
25554;DHT22;13446;50.926;5.332;2022-07-23T05:09:17;18.50;99.90
25554;DHT22;13446;50.926;5.332;2022-07-23T05:11:46;18.40;99.90
25554;DHT22;13446;50.926;5.332;2022-07-23T05:14:11;18.50;99.90
25554;DHT22;13446;50.926;5.332;2022-07-23T05:16:38;18.60;99.90
25554;DHT22;13446;50.926;5.332;2022-07-23T05:19:04;18.70;99.90
25554;DHT22;13446;50.926;5.332;2022-07-23T05:21:32;18.70;99.90
25554;DHT22;13446;50.926;5.332;2022-07-23T05:23:59;19.10;99.90
25554;DHT22;13446;50.926;5.332;2022-07-23T05:26:31;19.70;99.90
25554;DHT22;13446;50.926;5.332;2022-07-23T05:28:58;20.30;99.90
25554;DHT22;13446;50.926;5.332;2022-07-23T05:31:27;20.80;99.90
25554;DHT22;13446;50.926;5.332;2022-07-23T05:33:53;21.40;99.90
25554;DHT22;13446;50.926;5.332;2022-07-23T05:36:21;21.90;99.90
25554;DHT22;13446;50.926;5.332;2022-07-23T05:38:47;22.60;99.90
25554;DHT22;13446;50.926;5.332;2022-07-23T05:41:13;23.10;99.90
25554;DHT22;13446;50.926;5.332;2022-07-23T05:43:38;23.70;99.90
25554;DHT22;13446;50.926;5.332;2022-07-23T05:46:04;24.00;99.90
25554;DHT22;13446;50.926;5.332;2022-07-23T05:48:30;24.40;99.90
25554;DHT22;13446;50.926;5.332;2022-07-23T05:50:59;24.60;99.90
25554;DHT22;13446;50.926;5.332;2022-07-23T05:53:33;25.00;99.90
25554;DHT22;13446;50.926;5.332;2022-07-23T05:55:59;25.40;99.90
25554;DHT22;13446;50.926;5.332;2022-07-23T05:58:25;24.80;99.90
25554;DHT22;13446;50.926;5.332;2022-07-23T06:00:50;24.90;99.90
25554;DHT22;13446;50.926;5.332;2022-07-23T06:03:19;25.40;99.90
25554;DHT22;13446;50.926;5.332;2022-07-23T06:05:46;26.20;99.90
25554;DHT22;13446;50.926;5.332;2022-07-23T06:08:11;26.60;99.90
25554;DHT22;13446;50.926;5.332;2022-07-23T06:10:40;26.80;98.70
25554;DHT22;13446;50.926;5.332;2022-07-23T06:13:08;26.80;98.70
25554;DHT22;13446;50.926;5.332;2022-07-23T06:15:37;27.30;98.30
25554;DHT22;13446;50.926;5.332;2022-07-23T06:18:03;28.00;95.90
25554;DHT22;13446;50.926;5.332;2022-07-23T06:20:31;28.70;94.30
25554;DHT22;13446;50.926;5.332;2022-07-23T06:22:57;29.30;92.50
25554;DHT22;13446;50.926;5.332;2022-07-23T06:25:23;29.40;90.70
25554;DHT22;13446;50.926;5.332;2022-07-23T06:27:49;29.40;90.80
25554;DHT22;13446;50.926;5.332;2022-07-23T06:30:15;30.00;88.60
25554;DHT22;13446;50.926;5.332;2022-07-23T06:32:45;30.10;84.60
25554;DHT22;13446;50.926;5.332;2022-07-23T06:35:14;30.00;83.40
25554;DHT22;13446;50.926;5.332;2022-07-23T06:37:43;30.30;82.20
25554;DHT22;13446;50.926;5.332;2022-07-23T06:40:10;30.90;81.40
25554;DHT22;13446;50.926;5.332;2022-07-23T06:42:38;31.50;77.70
25554;DHT22;13446;50.926;5.332;2022-07-23T06:45:08;31.90;75.30
25554;DHT22;13446;50.926;5.332;2022-07-23T06:47:34;32.30;71.60
25554;DHT22;13446;50.926;5.332;2022-07-23T06:50:03;32.70;69.70
25554;DHT22;13446;50.926;5.332;2022-07-23T06:52:31;32.40;70.60
25554;DHT22;13446;50.926;5.332;2022-07-23T06:55:07;32.90;67.10
25554;DHT22;13446;50.926;5.332;2022-07-23T06:57:33;33.10;65.10
25554;DHT22;13446;50.926;5.332;2022-07-23T06:59:58;33.10;65.10
25554;DHT22;13446;50.926;5.332;2022-07-23T07:02:24;33.30;64.60
25554;DHT22;13446;50.926;5.332;2022-07-23T07:08:08;33.70;61.30
25554;DHT22;13446;50.926;5.332;2022-07-23T07:10:34;33.10;62.00
25554;DHT22;13446;50.926;5.332;2022-07-23T07:13:00;33.00;63.00
25554;DHT22;13446;50.926;5.332;2022-07-23T07:15:25;33.20;62.10
25554;DHT22;13446;50.926;5.332;2022-07-23T07:17:52;33.60;61.50
25554;DHT22;13446;50.926;5.332;2022-07-23T07:20:18;33.60;59.90
25554;DHT22;13446;50.926;5.332;2022-07-23T07:22:43;34.00;59.40
25554;DHT22;13446;50.926;5.332;2022-07-23T07:25:09;34.30;58.70
25554;DHT22;13446;50.926;5.332;2022-07-23T07:27:36;33.80;58.10
25554;DHT22;13446;50.926;5.332;2022-07-23T07:30:03;34.10;58.20
25554;DHT22;13446;50.926;5.332;2022-07-23T07:32:32;34.40;58.00
25554;DHT22;13446;50.926;5.332;2022-07-23T07:35:03;34.90;56.30
25554;DHT22;13446;50.926;5.332;2022-07-23T07:37:29;31.60;61.60
25554;DHT22;13446;50.926;5.332;2022-07-23T07:39:55;32.90;60.40
25554;DHT22;13446;50.926;5.332;2022-07-23T07:42:20;34.20;58.90
25554;DHT22;13446;50.926;5.332;2022-07-23T07:44:46;35.00;56.70
25554;DHT22;13446;50.926;5.332;2022-07-23T07:47:12;35.00;54.50
25554;DHT22;13446;50.926;5.332;2022-07-23T07:49:39;35.50;53.80
25554;DHT22;13446;50.926;5.332;2022-07-23T07:52:05;35.30;52.30
25554;DHT22;13446;50.926;5.332;2022-07-23T07:54:31;34.90;53.40
25554;DHT22;13446;50.926;5.332;2022-07-23T07:56:57;35.80;53.00
25554;DHT22;13446;50.926;5.332;2022-07-23T07:59:23;35.70;52.10
25554;DHT22;13446;50.926;5.332;2022-07-23T08:01:49;36.20;50.70
25554;DHT22;13446;50.926;5.332;2022-07-23T08:04:17;37.00;49.20
25554;DHT22;13446;50.926;5.332;2022-07-23T08:06:46;34.70;51.40
25554;DHT22;13446;50.926;5.332;2022-07-23T08:09:14;36.00;50.70
25554;DHT22;13446;50.926;5.332;2022-07-23T08:11:40;36.50;50.00
25554;DHT22;13446;50.926;5.332;2022-07-23T08:14:06;36.40;48.60
25554;DHT22;13446;50.926;5.332;2022-07-23T08:16:31;36.50;49.70
25554;DHT22;13446;50.926;5.332;2022-07-23T08:18:57;36.70;49.20
25554;DHT22;13446;50.926;5.332;2022-07-23T08:21:23;37.40;47.10
25554;DHT22;13446;50.926;5.332;2022-07-23T08:23:48;37.50;46.70
25554;DHT22;13446;50.926;5.332;2022-07-23T08:26:14;37.50;45.90
25554;DHT22;13446;50.926;5.332;2022-07-23T08:28:40;37.40;45.40
25554;DHT22;13446;50.926;5.332;2022-07-23T08:31:06;37.30;46.70
25554;DHT22;13446;50.926;5.332;2022-07-23T08:33:34;38.30;45.20
25554;DHT22;13446;50.926;5.332;2022-07-23T08:36:02;38.70;44.20
25554;DHT22;13446;50.926;5.332;2022-07-23T08:38:28;38.80;44.10
25554;DHT22;13446;50.926;5.332;2022-07-23T08:40:59;34.50;47.70
25554;DHT22;13446;50.926;5.332;2022-07-23T08:43:27;35.40;48.80
25554;DHT22;13446;50.926;5.332;2022-07-23T08:45:55;36.30;48.00
25554;DHT22;13446;50.926;5.332;2022-07-23T08:48:29;37.00;47.10
25554;DHT22;13446;50.926;5.332;2022-07-23T08:50:57;38.00;44.50
25554;DHT22;13446;50.926;5.332;2022-07-23T08:53:25;37.60;45.50
25554;DHT22;13446;50.926;5.332;2022-07-23T08:55:53;38.20;45.50
25554;DHT22;13446;50.926;5.332;2022-07-23T08:58:24;39.00;43.80
25554;DHT22;13446;50.926;5.332;2022-07-23T09:00:50;39.90;42.40
25554;DHT22;13446;50.926;5.332;2022-07-23T09:03:20;40.10;40.40
25554;DHT22;13446;50.926;5.332;2022-07-23T09:05:50;40.20;39.50
25554;DHT22;13446;50.926;5.332;2022-07-23T09:08:33;39.80;41.00
25554;DHT22;13446;50.926;5.332;2022-07-23T09:11:05;40.30;40.40
25554;DHT22;13446;50.926;5.332;2022-07-23T09:18:49;39.60;40.50
25554;DHT22;13446;50.926;5.332;2022-07-23T09:26:42;38.50;41.50
25554;DHT22;13446;50.926;5.332;2022-07-23T09:31:54;39.30;41.10
25554;DHT22;13446;50.926;5.332;2022-07-23T09:34:23;40.00;39.60
25554;DHT22;13446;50.926;5.332;2022-07-23T09:36:51;39.80;40.10
25554;DHT22;13446;50.926;5.332;2022-07-23T09:39:30;40.80;39.10
25554;DHT22;13446;50.926;5.332;2022-07-23T09:41:58;41.60;38.00
25554;DHT22;13446;50.926;5.332;2022-07-23T09:44:41;42.00;36.80
25554;DHT22;13446;50.926;5.332;2022-07-23T09:47:10;42.20;36.50
25554;DHT22;13446;50.926;5.332;2022-07-23T09:49:36;41.10;36.40
25554;DHT22;13446;50.926;5.332;2022-07-23T09:52:03;41.10;37.40
25554;DHT22;13446;50.926;5.332;2022-07-23T09:54:38;41.60;36.50
25554;DHT22;13446;50.926;5.332;2022-07-23T09:57:12;41.90;35.80
25554;DHT22;13446;50.926;5.332;2022-07-23T09:59:58;40.90;37.20
25554;DHT22;13446;50.926;5.332;2022-07-23T10:02:27;40.80;36.50
25554;DHT22;13446;50.926;5.332;2022-07-23T10:04:55;40.90;35.70
25554;DHT22;13446;50.926;5.332;2022-07-23T10:07:22;41.50;35.50
25554;DHT22;13446;50.926;5.332;2022-07-23T10:09:50;41.60;35.20
25554;DHT22;13446;50.926;5.332;2022-07-23T10:12:19;41.40;35.20
25554;DHT22;13446;50.926;5.332;2022-07-23T10:14:46;40.60;36.10
25554;DHT22;13446;50.926;5.332;2022-07-23T10:17:12;40.80;36.10
25554;DHT22;13446;50.926;5.332;2022-07-23T10:19:38;40.80;35.50
25554;DHT22;13446;50.926;5.332;2022-07-23T10:22:14;41.40;34.00
25554;DHT22;13446;50.926;5.332;2022-07-23T10:31:08;41.00;35.00
25554;DHT22;13446;50.926;5.332;2022-07-23T10:39:17;41.90;33.60
25554;DHT22;13446;50.926;5.332;2022-07-23T10:41:45;42.00;34.20
25554;DHT22;13446;50.926;5.332;2022-07-23T10:44:12;42.00;33.80
25554;DHT22;13446;50.926;5.332;2022-07-23T10:46:57;41.80;33.00
25554;DHT22;13446;50.926;5.332;2022-07-23T10:49:33;42.30;32.20
25554;DHT22;13446;50.926;5.332;2022-07-23T10:57:14;41.80;32.40
25554;DHT22;13446;50.926;5.332;2022-07-23T11:02:46;40.30;33.30
25554;DHT22;13446;50.926;5.332;2022-07-23T11:05:18;40.10;34.10
25554;DHT22;13446;50.926;5.332;2022-07-23T11:10:56;41.20;32.40
25554;DHT22;13446;50.926;5.332;2022-07-23T11:13:45;41.50;32.30
25554;DHT22;13446;50.926;5.332;2022-07-23T11:16:17;41.70;31.90
25554;DHT22;13446;50.926;5.332;2022-07-23T11:24:08;40.80;33.20
25554;DHT22;13446;50.926;5.332;2022-07-23T11:31:59;40.10;32.90
25554;DHT22;13446;50.926;5.332;2022-07-23T11:34:44;38.90;34.30
25554;DHT22;13446;50.926;5.332;2022-07-23T11:40:11;41.40;31.50
25554;DHT22;13446;50.926;5.332;2022-07-23T11:42:38;41.80;31.20
25554;DHT22;13446;50.926;5.332;2022-07-23T11:45:08;42.00;30.20
25554;DHT22;13446;50.926;5.332;2022-07-23T11:47:34;41.60;30.20
25554;DHT22;13446;50.926;5.332;2022-07-23T11:50:03;41.70;30.60
25554;DHT22;13446;50.926;5.332;2022-07-23T11:52:29;41.50;31.40
25554;DHT22;13446;50.926;5.332;2022-07-23T11:55:04;41.20;31.90
25554;DHT22;13446;50.926;5.332;2022-07-23T11:57:32;41.90;31.30
25554;DHT22;13446;50.926;5.332;2022-07-23T12:00:21;42.00;30.70
25554;DHT22;13446;50.926;5.332;2022-07-23T12:02:52;41.90;30.50
25554;DHT22;13446;50.926;5.332;2022-07-23T12:05:22;42.10;30.00
25554;DHT22;13446;50.926;5.332;2022-07-23T12:07:55;41.30;30.30
25554;DHT22;13446;50.926;5.332;2022-07-23T12:10:28;41.20;30.60
25554;DHT22;13446;50.926;5.332;2022-07-23T12:13:00;40.50;31.70
25554;DHT22;13446;50.926;5.332;2022-07-23T12:15:28;38.50;31.10
25554;DHT22;13446;50.926;5.332;2022-07-23T12:17:56;37.00;35.50
25554;DHT22;13446;50.926;5.332;2022-07-23T12:20:25;37.90;33.90
25554;DHT22;13446;50.926;5.332;2022-07-23T12:22:55;36.20;32.30
25554;DHT22;13446;50.926;5.332;2022-07-23T12:25:23;36.40;33.40
25554;DHT22;13446;50.926;5.332;2022-07-23T12:28:01;36.40;34.40
25554;DHT22;13446;50.926;5.332;2022-07-23T12:30:33;36.50;34.80
25554;DHT22;13446;50.926;5.332;2022-07-23T12:33:00;38.00;34.20
25554;DHT22;13446;50.926;5.332;2022-07-23T12:35:40;38.60;32.90
25554;DHT22;13446;50.926;5.332;2022-07-23T12:38:14;38.70;30.90
25554;DHT22;13446;50.926;5.332;2022-07-23T12:40:45;36.60;34.70
25554;DHT22;13446;50.926;5.332;2022-07-23T12:43:41;38.00;33.70
25554;DHT22;13446;50.926;5.332;2022-07-23T12:46:15;38.70;33.00
25554;DHT22;13446;50.926;5.332;2022-07-23T12:51:18;38.80;32.60
25554;DHT22;13446;50.926;5.332;2022-07-23T12:53:45;38.50;31.70
25554;DHT22;13446;50.926;5.332;2022-07-23T12:56:13;38.00;33.70
25554;DHT22;13446;50.926;5.332;2022-07-23T13:04:18;37.30;34.60
25554;DHT22;13446;50.926;5.332;2022-07-23T13:06:55;37.40;34.50
25554;DHT22;13446;50.926;5.332;2022-07-23T13:09:23;38.00;34.00
25554;DHT22;13446;50.926;5.332;2022-07-23T13:11:50;38.60;32.80
25554;DHT22;13446;50.926;5.332;2022-07-23T13:14:18;37.80;33.30
25554;DHT22;13446;50.926;5.332;2022-07-23T13:16:45;37.70;32.70
25554;DHT22;13446;50.926;5.332;2022-07-23T13:19:11;37.00;34.60
25554;DHT22;13446;50.926;5.332;2022-07-23T13:21:37;35.70;36.20
25554;DHT22;13446;50.926;5.332;2022-07-23T13:24:04;35.40;35.70
25554;DHT22;13446;50.926;5.332;2022-07-23T13:26:29;34.50;38.70
25554;DHT22;13446;50.926;5.332;2022-07-23T13:28:55;33.20;38.20
25554;DHT22;13446;50.926;5.332;2022-07-23T13:31:21;33.20;38.60
25554;DHT22;13446;50.926;5.332;2022-07-23T13:33:47;32.50;39.70
25554;DHT22;13446;50.926;5.332;2022-07-23T13:36:12;32.70;40.80
25554;DHT22;13446;50.926;5.332;2022-07-23T13:38:41;32.60;40.40
25554;DHT22;13446;50.926;5.332;2022-07-23T13:41:10;32.50;40.80
25554;DHT22;13446;50.926;5.332;2022-07-23T13:43:35;32.20;42.60
25554;DHT22;13446;50.926;5.332;2022-07-23T13:46:01;32.70;41.90
25554;DHT22;13446;50.926;5.332;2022-07-23T13:48:27;33.10;41.30
25554;DHT22;13446;50.926;5.332;2022-07-23T13:50:57;33.00;40.60
25554;DHT22;13446;50.926;5.332;2022-07-23T13:53:23;32.70;41.20
25554;DHT22;13446;50.926;5.332;2022-07-23T13:55:50;32.60;40.40
25554;DHT22;13446;50.926;5.332;2022-07-23T13:58:20;32.40;40.70
25554;DHT22;13446;50.926;5.332;2022-07-23T14:00:48;32.20;41.40
25554;DHT22;13446;50.926;5.332;2022-07-23T14:03:15;32.30;42.20
25554;DHT22;13446;50.926;5.332;2022-07-23T14:05:41;32.00;41.90
25554;DHT22;13446;50.926;5.332;2022-07-23T14:08:10;32.20;42.10
25554;DHT22;13446;50.926;5.332;2022-07-23T14:10:36;31.90;43.00
25554;DHT22;13446;50.926;5.332;2022-07-23T14:13:02;31.50;43.10
25554;DHT22;13446;50.926;5.332;2022-07-23T14:15:29;31.40;44.40
25554;DHT22;13446;50.926;5.332;2022-07-23T14:17:56;31.60;43.20
25554;DHT22;13446;50.926;5.332;2022-07-23T14:20:22;30.90;42.80
25554;DHT22;13446;50.926;5.332;2022-07-23T14:22:50;31.40;43.60
25554;DHT22;13446;50.926;5.332;2022-07-23T14:25:21;31.70;43.20
25554;DHT22;13446;50.926;5.332;2022-07-23T14:27:47;31.30;44.30
25554;DHT22;13446;50.926;5.332;2022-07-23T14:30:14;31.60;43.70
25554;DHT22;13446;50.926;5.332;2022-07-23T14:32:42;31.10;44.30
25554;DHT22;13446;50.926;5.332;2022-07-23T14:35:08;31.30;44.20
25554;DHT22;13446;50.926;5.332;2022-07-23T14:37:34;31.40;44.20
25554;DHT22;13446;50.926;5.332;2022-07-23T14:40:02;31.20;44.00
25554;DHT22;13446;50.926;5.332;2022-07-23T14:42:37;31.10;45.60
25554;DHT22;13446;50.926;5.332;2022-07-23T14:45:06;31.20;45.50
25554;DHT22;13446;50.926;5.332;2022-07-23T14:47:32;31.70;44.20
25554;DHT22;13446;50.926;5.332;2022-07-23T14:50:02;31.80;43.80
25554;DHT22;13446;50.926;5.332;2022-07-23T14:52:28;31.40;44.00
25554;DHT22;13446;50.926;5.332;2022-07-23T14:54:53;31.70;44.30
25554;DHT22;13446;50.926;5.332;2022-07-23T14:57:19;31.40;43.80
25554;DHT22;13446;50.926;5.332;2022-07-23T14:59:46;31.60;44.90
25554;DHT22;13446;50.926;5.332;2022-07-23T15:02:11;31.40;44.50
25554;DHT22;13446;50.926;5.332;2022-07-23T15:04:37;31.60;44.90
25554;DHT22;13446;50.926;5.332;2022-07-23T15:07:03;31.70;44.90
25554;DHT22;13446;50.926;5.332;2022-07-23T15:09:29;31.90;43.80
25554;DHT22;13446;50.926;5.332;2022-07-23T15:11:55;31.90;44.20
25554;DHT22;13446;50.926;5.332;2022-07-23T15:14:22;31.40;43.70
25554;DHT22;13446;50.926;5.332;2022-07-23T15:16:48;30.60;44.80
25554;DHT22;13446;50.926;5.332;2022-07-23T15:19:14;30.80;45.30
25554;DHT22;13446;50.926;5.332;2022-07-23T15:21:40;30.90;45.70
25554;DHT22;13446;50.926;5.332;2022-07-23T15:24:07;31.40;45.40
25554;DHT22;13446;50.926;5.332;2022-07-23T15:26:33;31.60;44.90
25554;DHT22;13446;50.926;5.332;2022-07-23T15:28:58;31.80;44.00
25554;DHT22;13446;50.926;5.332;2022-07-23T15:31:25;31.80;44.00
25554;DHT22;13446;50.926;5.332;2022-07-23T15:33:52;31.60;44.60
25554;DHT22;13446;50.926;5.332;2022-07-23T15:36:19;31.40;44.50
25554;DHT22;13446;50.926;5.332;2022-07-23T15:38:45;31.70;44.90
25554;DHT22;13446;50.926;5.332;2022-07-23T15:41:11;31.60;44.70
25554;DHT22;13446;50.926;5.332;2022-07-23T15:43:37;31.90;44.10
25554;DHT22;13446;50.926;5.332;2022-07-23T15:46:05;31.70;44.00
25554;DHT22;13446;50.926;5.332;2022-07-23T15:48:31;31.70;43.80
25554;DHT22;13446;50.926;5.332;2022-07-23T15:50:58;31.10;44.90
25554;DHT22;13446;50.926;5.332;2022-07-23T15:53:24;31.10;45.20
25554;DHT22;13446;50.926;5.332;2022-07-23T15:55:55;31.20;45.10
25554;DHT22;13446;50.926;5.332;2022-07-23T15:58:21;31.30;44.10
25554;DHT22;13446;50.926;5.332;2022-07-23T16:00:49;31.40;43.80
25554;DHT22;13446;50.926;5.332;2022-07-23T16:03:15;31.30;45.00
25554;DHT22;13446;50.926;5.332;2022-07-23T16:05:42;31.20;45.00
25554;DHT22;13446;50.926;5.332;2022-07-23T16:08:17;31.30;45.60
25554;DHT22;13446;50.926;5.332;2022-07-23T16:10:43;30.90;45.90
25554;DHT22;13446;50.926;5.332;2022-07-23T16:13:09;31.10;45.30
25554;DHT22;13446;50.926;5.332;2022-07-23T16:15:35;30.80;45.80
25554;DHT22;13446;50.926;5.332;2022-07-23T16:18:01;30.90;45.50
25554;DHT22;13446;50.926;5.332;2022-07-23T16:20:27;30.90;46.50
25554;DHT22;13446;50.926;5.332;2022-07-23T16:22:53;30.80;46.30
25554;DHT22;13446;50.926;5.332;2022-07-23T16:25:18;30.80;46.10
25554;DHT22;13446;50.926;5.332;2022-07-23T16:27:44;30.20;46.60
25554;DHT22;13446;50.926;5.332;2022-07-23T16:30:12;30.10;47.60
25554;DHT22;13446;50.926;5.332;2022-07-23T16:32:38;30.20;47.20
25554;DHT22;13446;50.926;5.332;2022-07-23T16:35:04;30.40;46.00
25554;DHT22;13446;50.926;5.332;2022-07-23T16:37:30;30.40;46.20
25554;DHT22;13446;50.926;5.332;2022-07-23T16:39:59;30.30;46.00